CSAV Lonquen — A8OT2 — position and weather

sailwx.info

Track history (hours):
 
Tides and Currents Weather Stations Pressure Air Temp Water Temp Dewpoint Dewpoint Depression Visibility Wind Speed Wind Dir Waves Ship Positions

CSAV Lonquen

Last reported at 2014-Aug-22 23:05 UTC. Time now 2014-Aug-23 15:22 UTC.
Position N 36°22' W 002°13'.

Length 261 m; draft 11.5 m.

Type: Ship (hazmat cat A). MMSI: 636091501.

Date/timePositionNaut miles runAvg speedWind from/ knotsBaromVisibWave heightAir tempDewpointWater temp
2014-Aug-22 23:05N 36°22' W 002°13'1115.5
2014-Aug-22 22:21N 36°21' W 002°27'1315.8
2014-Aug-22 21:33N 36°20' W 002°43'1815.6
2014-Aug-22 20:24N 36°16' W 003°05'10917.5
2014-Aug-22 14:11N 35°59' W 005°18'11016.5
2014-Aug-22 07:32N 36°11' W 007°33'6916.3
2014-Aug-22 03:18N 36°28' W 008°56'15315.5
2014-Aug-21 17:28N 38°50' W 010°07'81115.6
2014-Aug-19 13:31N 50°27' W 000°25'3518.0
2014-Aug-19 11:33N 50°34' E 000°29'1918.7
2014-Aug-19 10:33N 50°46' E 000°53'2518.2
2014-Aug-19 09:12N 51°01' E 001°23'1117.3
2014-Aug-19 08:34N 51°08' E 001°37'1716.9
2014-Aug-19 07:34N 51°21' E 001°54'1313.1
2014-Aug-19 06:34N 51°21' E 002°15'1615.8
2014-Aug-19 05:33N 51°23' E 002°41'1615.8
2014-Aug-19 04:34N 51°24' E 003°06'1717.4
2014-Aug-19 03:34N 51°26' E 003°33'10 9.9
2014-Aug-19 02:34N 51°21' E 003°48'1010.4
2014-Aug-19 01:33N 51°22' E 004°04'9 8.6
2014-Aug-19 00:34N 51°18' E 004°16'0 0.2
2014-Aug-18 23:32N 51°18' E 004°16'0 0.0
2014-Aug-18 22:32N 51°18' E 004°16'0 0.0
2014-Aug-18 21:14N 51°18' E 004°16'0 0.0
2014-Aug-18 20:26N 51°18' E 004°16'0 0.0
2014-Aug-18 19:29N 51°18' E 004°16'0 0.0
2014-Aug-18 18:32N 51°18' E 004°16'0 0.0
2014-Aug-18 17:32N 51°18' E 004°16'0 0.0
2014-Aug-18 16:29N 51°18' E 004°16'0 0.0
2014-Aug-18 15:32N 51°18' E 004°16'0 0.0
2014-Aug-18 14:32N 51°18' E 004°16'0 0.0
2014-Aug-18 13:32N 51°18' E 004°16'0 0.0
2014-Aug-18 12:32N 51°18' E 004°16'0 0.0
2014-Aug-18 11:23N 51°18' E 004°16'0 0.0
2014-Aug-18 10:32N 51°18' E 004°16'0 0.0
2014-Aug-18 09:15N 51°18' E 004°16'0 0.6
2014-Aug-18 08:34N 51°18' E 004°16'6 6.3
2014-Aug-18 07:33N 51°22' E 004°09'10 9.9
2014-Aug-18 06:33N 51°21' E 003°53'1313.3
2014-Aug-18 05:33N 51°25' E 003°33'1716.8
2014-Aug-18 04:33N 51°24' E 003°06'1211.7
2014-Aug-18 03:33N 51°35' E 003°10'9 9.4
2014-Aug-18 02:33N 51°45' E 003°11'2 1.8
2014-Aug-18 01:33N 51°47' E 003°11'4 3.9
2014-Aug-18 00:33N 51°49' E 003°16'51 8.4
2014-Aug-17 18:33N 52°38' E 003°33'8 8.3
2014-Aug-17 17:33N 52°45' E 003°42'9 9.3
2014-Aug-17 16:32N 52°52' E 003°52'10 9.9
2014-Aug-17 15:31N 52°60' E 004°03'1212.1
2014-Aug-17 14:33N 53°07' E 004°17'1411.3
2014-Aug-17 13:18N 53°20' E 004°29'910.9
2014-Aug-17 12:26N 53°28' E 004°36'910.2
2014-Aug-17 11:33N 53°32' E 004°50'10 9.9
2014-Aug-17 10:33N 53°35' E 005°05'9 9.4
2014-Aug-17 09:33N 53°39' E 005°20'9 9.2
2014-Aug-17 08:33N 53°42' E 005°35'9 9.2
2014-Aug-17 07:32N 53°44' E 005°50'1010.6
2014-Aug-17 06:33N 53°47' E 006°07'5110.0
2014-Aug-17 01:27N 53°59' E 007°31'11 8.2
2014-Aug-17 00:06N 53°53' E 007°46'610.8
2014-Aug-16 23:33N 53°52' E 007°56'1515.1
2014-Aug-16 22:33N 53°43' E 008°17'1110.8
2014-Aug-16 21:34N 53°36' E 008°31'0 0.0
2014-Aug-16 20:33N 53°36' E 008°31'0 0.0
2014-Aug-16 19:34N 53°36' E 008°31'0 0.0
2014-Aug-16 18:33N 53°36' E 008°31'0 0.0
2014-Aug-16 17:33N 53°36' E 008°31'0 0.0
2014-Aug-16 16:33N 53°36' E 008°31'0 0.0
2014-Aug-16 15:34N 53°36' E 008°31'0 0.0
2014-Aug-16 14:33N 53°36' E 008°31'0 0.0
2014-Aug-16 13:33N 53°36' E 008°31'0 0.0
2014-Aug-16 12:33N 53°36' E 008°31'0 0.0
2014-Aug-16 11:33N 53°36' E 008°31'0 0.0
2014-Aug-16 10:34N 53°36' E 008°31'0 0.0
2014-Aug-16 09:33N 53°36' E 008°31'0 0.0
2014-Aug-16 08:33N 53°36' E 008°31'0 0.0
2014-Aug-16 07:33N 53°36' E 008°31'0 0.0
2014-Aug-16 06:33N 53°36' E 008°31'0 0.0
2014-Aug-16 05:34N 53°36' E 008°31'2 2.3
2014-Aug-16 04:34N 53°38' E 008°28'1616.0
2014-Aug-16 03:34N 53°48' E 008°08'1515.0
2014-Aug-16 02:33N 53°53' E 007°43'2 1.0
2014-Aug-16 00:33N 53°54' E 007°40'10 9.8
2014-Aug-15 23:33N 54°03' E 007°33'1413.9
2014-Aug-15 22:33N 54°15' E 007°22'1414.4
2014-Aug-15 21:33N 54°28' E 007°10'1414.2
2014-Aug-15 20:33N 54°41' E 006°60'1414.3
2014-Aug-15 19:33N 54°55' E 006°60'1414.0
2014-Aug-15 18:34N 55°09' E 006°60'1513.9
2014-Aug-15 17:30N 55°23' E 006°60'1313.8
2014-Aug-15 16:33N 55°37' E 006°60'12213.0
2014-Aug-15 07:11N 57°24' E 008°46'2814.7
2014-Aug-15 05:15N 57°39' E 009°30'1515.2
2014-Aug-15 04:17N 57°46' E 009°54'1114.6
2014-Aug-15 03:34N 57°49' E 010°13'1514.7
2014-Aug-15 02:33N 57°49' E 010°41'1312.9
2014-Aug-15 01:33N 57°42' E 011°01'1515.5
2014-Aug-15 00:33N 57°31' E 011°20'1515.2
2014-Aug-14 23:34N 57°17' E 011°33'1815.4
2014-Aug-14 22:24N 57°00' E 011°45'1214.6
2014-Aug-14 21:33N 56°49' E 011°52'1312.6
2014-Aug-14 20:33N 56°37' E 011°45'2014.5
2014-Aug-14 19:10N 56°19' E 011°26'10812.5
2014-Aug-14 10:33N 54°31' E 011°26'1414.3
2014-Aug-14 09:33N 54°27' E 011°49'1313.5
2014-Aug-14 08:33N 54°28' E 012°12'1111.1
2014-Aug-14 07:33N 54°38' E 012°19'9 8.9
2014-Aug-14 06:33N 54°43' E 012°32'10 9.6
2014-Aug-14 05:33N 54°48' E 012°46'1010.3
2014-Aug-14 04:34N 54°52' E 013°03'1615.6
2014-Aug-14 03:34N 54°57' E 013°29'1615.7
2014-Aug-14 02:33N 55°03' E 013°54'1515.0
2014-Aug-14 01:32N 55°12' E 014°15'1515.7
2014-Aug-14 00:33N 55°25' E 014°31'1615.5
2014-Aug-13 23:33N 55°33' E 014°54'1616.1
2014-Aug-13 22:33N 55°41' E 015°19'1616.5
2014-Aug-13 21:34N 55°49' E 015°45'1616.4
2014-Aug-13 20:34N 55°57' E 016°10'1816.0
2014-Aug-13 19:25N 56°06' E 016°38'30115.6
2014-Aug-13 00:05N 59°38' E 023°21'1015.9
2014-Aug-12 23:26N 59°41' E 023°40'  
Track history (hours):
 
Tides and Currents Weather Stations Pressure Air Temp Water Temp Dewpoint Dewpoint Depression Visibility Wind Speed Wind Dir Waves Ship Positions

CSAV Lonquen

Last reported at 2014-Aug-22 23:05 UTC. Time now 2014-Aug-23 15:22 UTC.
Position N 36°22' W 002°13'.

Length 261 m; draft 11.5 m.

Type: Ship (hazmat cat A). MMSI: 636091501.

Date/timePositionNaut miles runAvg speedWind from/ knotsBaromVisibWave heightAir tempDewpointWater temp
2014-Aug-22 23:05N 36°22' W 002°13'1115.5
2014-Aug-22 22:21N 36°21' W 002°27'1315.8
2014-Aug-22 21:33N 36°20' W 002°43'1815.6
2014-Aug-22 20:24N 36°16' W 003°05'10917.5
2014-Aug-22 14:11N 35°59' W 005°18'11016.5
2014-Aug-22 07:32N 36°11' W 007°33'6916.3
2014-Aug-22 03:18N 36°28' W 008°56'15315.5
2014-Aug-21 17:28N 38°50' W 010°07'81115.6
2014-Aug-19 13:31N 50°27' W 000°25'3518.0
2014-Aug-19 11:33N 50°34' E 000°29'1918.7
2014-Aug-19 10:33N 50°46' E 000°53'2518.2
2014-Aug-19 09:12N 51°01' E 001°23'1117.3
2014-Aug-19 08:34N 51°08' E 001°37'1716.9
2014-Aug-19 07:34N 51°21' E 001°54'1313.1
2014-Aug-19 06:34N 51°21' E 002°15'1615.8
2014-Aug-19 05:33N 51°23' E 002°41'1615.8
2014-Aug-19 04:34N 51°24' E 003°06'1717.4
2014-Aug-19 03:34N 51°26' E 003°33'10 9.9
2014-Aug-19 02:34N 51°21' E 003°48'1010.4
2014-Aug-19 01:33N 51°22' E 004°04'9 8.6
2014-Aug-19 00:34N 51°18' E 004°16'0 0.2
2014-Aug-18 23:32N 51°18' E 004°16'0 0.0
2014-Aug-18 22:32N 51°18' E 004°16'0 0.0
2014-Aug-18 21:14N 51°18' E 004°16'0 0.0
2014-Aug-18 20:26N 51°18' E 004°16'0 0.0
2014-Aug-18 19:29N 51°18' E 004°16'0 0.0
2014-Aug-18 18:32N 51°18' E 004°16'0 0.0
2014-Aug-18 17:32N 51°18' E 004°16'0 0.0
2014-Aug-18 16:29N 51°18' E 004°16'0 0.0
2014-Aug-18 15:32N 51°18' E 004°16'0 0.0
2014-Aug-18 14:32N 51°18' E 004°16'0 0.0
2014-Aug-18 13:32N 51°18' E 004°16'0 0.0
2014-Aug-18 12:32N 51°18' E 004°16'0 0.0
2014-Aug-18 11:23N 51°18' E 004°16'0 0.0
2014-Aug-18 10:32N 51°18' E 004°16'0 0.0
2014-Aug-18 09:15N 51°18' E 004°16'0 0.6
2014-Aug-18 08:34N 51°18' E 004°16'6 6.3
2014-Aug-18 07:33N 51°22' E 004°09'10 9.9
2014-Aug-18 06:33N 51°21' E 003°53'1313.3
2014-Aug-18 05:33N 51°25' E 003°33'1716.8
2014-Aug-18 04:33N 51°24' E 003°06'1211.7
2014-Aug-18 03:33N 51°35' E 003°10'9 9.4
2014-Aug-18 02:33N 51°45' E 003°11'2 1.8
2014-Aug-18 01:33N 51°47' E 003°11'4 3.9
2014-Aug-18 00:33N 51°49' E 003°16'51 8.4
2014-Aug-17 18:33N 52°38' E 003°33'8 8.3
2014-Aug-17 17:33N 52°45' E 003°42'9 9.3
2014-Aug-17 16:32N 52°52' E 003°52'10 9.9
2014-Aug-17 15:31N 52°60' E 004°03'1212.1
2014-Aug-17 14:33N 53°07' E 004°17'1411.3
2014-Aug-17 13:18N 53°20' E 004°29'910.9
2014-Aug-17 12:26N 53°28' E 004°36'910.2
2014-Aug-17 11:33N 53°32' E 004°50'10 9.9
2014-Aug-17 10:33N 53°35' E 005°05'9 9.4
2014-Aug-17 09:33N 53°39' E 005°20'9 9.2
2014-Aug-17 08:33N 53°42' E 005°35'9 9.2
2014-Aug-17 07:32N 53°44' E 005°50'1010.6
2014-Aug-17 06:33N 53°47' E 006°07'5110.0
2014-Aug-17 01:27N 53°59' E 007°31'11 8.2
2014-Aug-17 00:06N 53°53' E 007°46'610.8
2014-Aug-16 23:33N 53°52' E 007°56'1515.1
2014-Aug-16 22:33N 53°43' E 008°17'1110.8
2014-Aug-16 21:34N 53°36' E 008°31'0 0.0
2014-Aug-16 20:33N 53°36' E 008°31'0 0.0
2014-Aug-16 19:34N 53°36' E 008°31'0 0.0
2014-Aug-16 18:33N 53°36' E 008°31'0 0.0
2014-Aug-16 17:33N 53°36' E 008°31'0 0.0
2014-Aug-16 16:33N 53°36' E 008°31'0 0.0
2014-Aug-16 15:34N 53°36' E 008°31'0 0.0
2014-Aug-16 14:33N 53°36' E 008°31'0 0.0
2014-Aug-16 13:33N 53°36' E 008°31'0 0.0
2014-Aug-16 12:33N 53°36' E 008°31'0 0.0
2014-Aug-16 11:33N 53°36' E 008°31'0 0.0
2014-Aug-16 10:34N 53°36' E 008°31'0 0.0
2014-Aug-16 09:33N 53°36' E 008°31'0 0.0
2014-Aug-16 08:33N 53°36' E 008°31'0 0.0
2014-Aug-16 07:33N 53°36' E 008°31'0 0.0
2014-Aug-16 06:33N 53°36' E 008°31'0 0.0
2014-Aug-16 05:34N 53°36' E 008°31'2 2.3
2014-Aug-16 04:34N 53°38' E 008°28'1616.0
2014-Aug-16 03:34N 53°48' E 008°08'1515.0
2014-Aug-16 02:33N 53°53' E 007°43'2 1.0
2014-Aug-16 00:33N 53°54' E 007°40'10 9.8
2014-Aug-15 23:33N 54°03' E 007°33'1413.9
2014-Aug-15 22:33N 54°15' E 007°22'1414.4
2014-Aug-15 21:33N 54°28' E 007°10'1414.2
2014-Aug-15 20:33N 54°41' E 006°60'1414.3
2014-Aug-15 19:33N 54°55' E 006°60'1414.0
2014-Aug-15 18:34N 55°09' E 006°60'1513.9
2014-Aug-15 17:30N 55°23' E 006°60'1313.8
2014-Aug-15 16:33N 55°37' E 006°60'12213.0
2014-Aug-15 07:11N 57°24' E 008°46'2814.7
2014-Aug-15 05:15N 57°39' E 009°30'1515.2
2014-Aug-15 04:17N 57°46' E 009°54'1114.6
2014-Aug-15 03:34N 57°49' E 010°13'1514.7
2014-Aug-15 02:33N 57°49' E 010°41'1312.9
2014-Aug-15 01:33N 57°42' E 011°01'1515.5
2014-Aug-15 00:33N 57°31' E 011°20'1515.2
2014-Aug-14 23:34N 57°17' E 011°33'1815.4
2014-Aug-14 22:24N 57°00' E 011°45'1214.6
2014-Aug-14 21:33N 56°49' E 011°52'1312.6
2014-Aug-14 20:33N 56°37' E 011°45'2014.5
2014-Aug-14 19:10N 56°19' E 011°26'10812.5
2014-Aug-14 10:33N 54°31' E 011°26'1414.3
2014-Aug-14 09:33N 54°27' E 011°49'1313.5
2014-Aug-14 08:33N 54°28' E 012°12'1111.1
2014-Aug-14 07:33N 54°38' E 012°19'9 8.9
2014-Aug-14 06:33N 54°43' E 012°32'10 9.6
2014-Aug-14 05:33N 54°48' E 012°46'1010.3
2014-Aug-14 04:34N 54°52' E 013°03'1615.6
2014-Aug-14 03:34N 54°57' E 013°29'1615.7
2014-Aug-14 02:33N 55°03' E 013°54'1515.0
2014-Aug-14 01:32N 55°12' E 014°15'1515.7
2014-Aug-14 00:33N 55°25' E 014°31'1615.5
2014-Aug-13 23:33N 55°33' E 014°54'1616.1
2014-Aug-13 22:33N 55°41' E 015°19'1616.5
2014-Aug-13 21:34N 55°49' E 015°45'1616.4
2014-Aug-13 20:34N 55°57' E 016°10'1816.0
2014-Aug-13 19:25N 56°06' E 016°38'30115.6
2014-Aug-13 00:05N 59°38' E 023°21'1015.9
2014-Aug-12 23:26N 59°41' E 023°40'  

Dump ship's entire track history